sensor_id;sensor_type;location;lat;lon;timestamp;P1;durP1;ratioP1;P2;durP2;ratioP2
54167;SDS011;68429;50.958;3.592;2023-04-03T00:00:56;38.22;;;28.27;;
54167;SDS011;68429;50.958;3.592;2023-04-03T00:03:22;42.65;;;27.45;;
54167;SDS011;68429;50.958;3.592;2023-04-03T00:05:48;36.47;;;27.67;;
54167;SDS011;68429;50.958;3.592;2023-04-03T00:08:14;39.17;;;28.00;;
54167;SDS011;68429;50.958;3.592;2023-04-03T00:10:40;37.85;;;26.95;;
54167;SDS011;68429;50.958;3.592;2023-04-03T00:13:06;33.35;;;25.40;;
54167;SDS011;68429;50.958;3.592;2023-04-03T00:15:33;35.67;;;26.05;;
54167;SDS011;68429;50.958;3.592;2023-04-03T00:17:59;38.92;;;27.02;;
54167;SDS011;68429;50.958;3.592;2023-04-03T00:20:25;41.08;;;26.25;;
54167;SDS011;68429;50.958;3.592;2023-04-03T00:22:52;38.38;;;27.65;;
54167;SDS011;68429;50.958;3.592;2023-04-03T00:25:18;39.72;;;28.65;;
54167;SDS011;68429;50.958;3.592;2023-04-03T00:27:44;42.13;;;30.55;;
54167;SDS011;68429;50.958;3.592;2023-04-03T00:30:10;46.45;;;30.48;;
54167;SDS011;68429;50.958;3.592;2023-04-03T00:32:42;44.22;;;31.95;;
54167;SDS011;68429;50.958;3.592;2023-04-03T00:35:07;41.75;;;28.92;;
54167;SDS011;68429;50.958;3.592;2023-04-03T00:37:33;40.75;;;27.73;;
54167;SDS011;68429;50.958;3.592;2023-04-03T00:39:59;40.70;;;28.23;;
54167;SDS011;68429;50.958;3.592;2023-04-03T00:42:25;34.45;;;25.70;;
54167;SDS011;68429;50.958;3.592;2023-04-03T00:47:23;34.30;;;25.10;;
54167;SDS011;68429;50.958;3.592;2023-04-03T00:49:50;38.88;;;25.63;;
54167;SDS011;68429;50.958;3.592;2023-04-03T00:52:17;37.13;;;23.65;;
54167;SDS011;68429;50.958;3.592;2023-04-03T00:54:46;37.28;;;23.35;;
54167;SDS011;68429;50.958;3.592;2023-04-03T00:57:14;35.45;;;21.83;;
54167;SDS011;68429;50.958;3.592;2023-04-03T00:59:42;37.38;;;23.33;;
54167;SDS011;68429;50.958;3.592;2023-04-03T01:02:11;29.27;;;22.17;;
54167;SDS011;68429;50.958;3.592;2023-04-03T01:04:38;35.30;;;22.55;;
54167;SDS011;68429;50.958;3.592;2023-04-03T01:07:07;26.77;;;20.50;;
54167;SDS011;68429;50.958;3.592;2023-04-03T01:09:35;32.70;;;22.52;;
54167;SDS011;68429;50.958;3.592;2023-04-03T01:15:09;29.45;;;20.38;;
54167;SDS011;68429;50.958;3.592;2023-04-03T01:25:23;26.25;;;19.10;;
54167;SDS011;68429;50.958;3.592;2023-04-03T01:27:49;25.70;;;19.45;;
54167;SDS011;68429;50.958;3.592;2023-04-03T01:30:17;27.27;;;19.27;;
54167;SDS011;68429;50.958;3.592;2023-04-03T01:32:45;33.95;;;19.90;;
54167;SDS011;68429;50.958;3.592;2023-04-03T01:35:11;27.58;;;19.83;;
54167;SDS011;68429;50.958;3.592;2023-04-03T01:37:37;29.77;;;19.40;;
54167;SDS011;68429;50.958;3.592;2023-04-03T01:40:03;30.83;;;18.95;;
54167;SDS011;68429;50.958;3.592;2023-04-03T01:42:29;31.83;;;20.05;;
54167;SDS011;68429;50.958;3.592;2023-04-03T01:44:55;26.40;;;18.67;;
54167;SDS011;68429;50.958;3.592;2023-04-03T01:47:21;36.63;;;19.40;;
54167;SDS011;68429;50.958;3.592;2023-04-03T01:49:47;25.23;;;18.65;;
54167;SDS011;68429;50.958;3.592;2023-04-03T01:52:12;26.58;;;18.70;;
54167;SDS011;68429;50.958;3.592;2023-04-03T01:54:38;27.55;;;18.33;;
54167;SDS011;68429;50.958;3.592;2023-04-03T01:57:04;22.40;;;18.25;;
54167;SDS011;68429;50.958;3.592;2023-04-03T01:59:29;33.20;;;18.77;;
54167;SDS011;68429;50.958;3.592;2023-04-03T02:01:55;28.20;;;19.60;;
54167;SDS011;68429;50.958;3.592;2023-04-03T02:04:21;32.50;;;18.92;;
54167;SDS011;68429;50.958;3.592;2023-04-03T02:06:47;24.95;;;17.65;;
54167;SDS011;68429;50.958;3.592;2023-04-03T02:09:13;30.10;;;17.67;;
54167;SDS011;68429;50.958;3.592;2023-04-03T02:11:39;28.13;;;18.55;;
54167;SDS011;68429;50.958;3.592;2023-04-03T02:14:05;25.38;;;17.65;;
54167;SDS011;68429;50.958;3.592;2023-04-03T02:16:31;28.05;;;17.10;;
54167;SDS011;68429;50.958;3.592;2023-04-03T02:18:57;23.00;;;17.88;;
54167;SDS011;68429;50.958;3.592;2023-04-03T02:21:22;25.33;;;16.90;;
54167;SDS011;68429;50.958;3.592;2023-04-03T02:23:48;23.15;;;16.92;;
54167;SDS011;68429;50.958;3.592;2023-04-03T02:26:15;29.92;;;18.13;;
54167;SDS011;68429;50.958;3.592;2023-04-03T02:28:41;26.95;;;17.60;;
54167;SDS011;68429;50.958;3.592;2023-04-03T02:31:07;22.48;;;15.52;;
54167;SDS011;68429;50.958;3.592;2023-04-03T02:33:34;24.73;;;16.35;;
54167;SDS011;68429;50.958;3.592;2023-04-03T02:36:01;23.42;;;16.85;;
54167;SDS011;68429;50.958;3.592;2023-04-03T02:38:28;23.77;;;17.33;;
54167;SDS011;68429;50.958;3.592;2023-04-03T02:40:59;26.90;;;17.75;;
54167;SDS011;68429;50.958;3.592;2023-04-03T02:43:28;22.98;;;16.27;;
54167;SDS011;68429;50.958;3.592;2023-04-03T02:45:54;24.90;;;17.05;;
54167;SDS011;68429;50.958;3.592;2023-04-03T02:48:20;23.33;;;15.70;;
54167;SDS011;68429;50.958;3.592;2023-04-03T02:50:45;22.20;;;15.85;;
54167;SDS011;68429;50.958;3.592;2023-04-03T02:53:11;24.20;;;15.55;;
54167;SDS011;68429;50.958;3.592;2023-04-03T02:55:37;24.85;;;15.35;;
54167;SDS011;68429;50.958;3.592;2023-04-03T02:58:02;23.25;;;15.25;;
54167;SDS011;68429;50.958;3.592;2023-04-03T03:00:28;22.25;;;14.82;;
54167;SDS011;68429;50.958;3.592;2023-04-03T03:02:55;22.00;;;14.05;;
54167;SDS011;68429;50.958;3.592;2023-04-03T03:05:20;20.55;;;13.90;;
54167;SDS011;68429;50.958;3.592;2023-04-03T03:07:46;19.83;;;13.20;;
54167;SDS011;68429;50.958;3.592;2023-04-03T03:10:12;29.00;;;13.68;;
54167;SDS011;68429;50.958;3.592;2023-04-03T03:12:38;21.98;;;13.30;;
54167;SDS011;68429;50.958;3.592;2023-04-03T03:15:05;22.55;;;13.02;;
54167;SDS011;68429;50.958;3.592;2023-04-03T03:17:32;17.63;;;11.65;;
54167;SDS011;68429;50.958;3.592;2023-04-03T03:19:57;22.35;;;11.75;;
54167;SDS011;68429;50.958;3.592;2023-04-03T03:22:23;18.40;;;11.50;;
54167;SDS011;68429;50.958;3.592;2023-04-03T03:24:49;18.10;;;11.52;;
54167;SDS011;68429;50.958;3.592;2023-04-03T03:27:15;18.75;;;11.40;;
54167;SDS011;68429;50.958;3.592;2023-04-03T03:29:41;15.48;;;10.55;;
54167;SDS011;68429;50.958;3.592;2023-04-03T03:32:07;23.70;;;11.70;;
54167;SDS011;68429;50.958;3.592;2023-04-03T03:34:33;21.02;;;11.18;;
54167;SDS011;68429;50.958;3.592;2023-04-03T03:36:59;23.13;;;11.32;;
54167;SDS011;68429;50.958;3.592;2023-04-03T03:39:24;13.73;;;10.38;;
54167;SDS011;68429;50.958;3.592;2023-04-03T03:41:51;20.73;;;10.90;;
54167;SDS011;68429;50.958;3.592;2023-04-03T03:44:18;15.68;;;10.48;;
54167;SDS011;68429;50.958;3.592;2023-04-03T03:46:44;23.52;;;10.48;;
54167;SDS011;68429;50.958;3.592;2023-04-03T03:49:10;16.65;;;9.95;;
54167;SDS011;68429;50.958;3.592;2023-04-03T03:51:36;15.30;;;10.20;;
54167;SDS011;68429;50.958;3.592;2023-04-03T03:54:05;17.05;;;10.25;;
54167;SDS011;68429;50.958;3.592;2023-04-03T03:56:32;18.80;;;10.77;;
54167;SDS011;68429;50.958;3.592;2023-04-03T03:58:58;16.98;;;11.23;;
54167;SDS011;68429;50.958;3.592;2023-04-03T04:01:24;20.20;;;11.10;;
54167;SDS011;68429;50.958;3.592;2023-04-03T04:03:50;20.15;;;10.35;;
54167;SDS011;68429;50.958;3.592;2023-04-03T04:06:16;16.90;;;10.23;;
54167;SDS011;68429;50.958;3.592;2023-04-03T04:08:41;14.98;;;10.38;;
54167;SDS011;68429;50.958;3.592;2023-04-03T04:11:08;16.73;;;10.38;;
54167;SDS011;68429;50.958;3.592;2023-04-03T04:13:34;16.60;;;9.82;;
54167;SDS011;68429;50.958;3.592;2023-04-03T04:16:00;14.05;;;9.43;;
54167;SDS011;68429;50.958;3.592;2023-04-03T04:18:25;15.68;;;9.80;;
54167;SDS011;68429;50.958;3.592;2023-04-03T04:20:51;17.02;;;10.05;;
54167;SDS011;68429;50.958;3.592;2023-04-03T04:23:17;12.32;;;9.15;;
54167;SDS011;68429;50.958;3.592;2023-04-03T04:25:44;16.88;;;10.40;;
54167;SDS011;68429;50.958;3.592;2023-04-03T04:28:11;14.23;;;8.85;;
54167;SDS011;68429;50.958;3.592;2023-04-03T04:30:37;15.15;;;8.70;;
54167;SDS011;68429;50.958;3.592;2023-04-03T04:33:02;13.55;;;8.35;;
54167;SDS011;68429;50.958;3.592;2023-04-03T04:35:28;15.43;;;8.10;;
54167;SDS011;68429;50.958;3.592;2023-04-03T04:37:54;10.55;;;7.43;;
54167;SDS011;68429;50.958;3.592;2023-04-03T04:40:19;10.82;;;7.68;;
54167;SDS011;68429;50.958;3.592;2023-04-03T04:42:46;12.43;;;7.72;;
54167;SDS011;68429;50.958;3.592;2023-04-03T04:45:11;12.02;;;7.85;;
54167;SDS011;68429;50.958;3.592;2023-04-03T04:47:37;13.23;;;7.32;;
54167;SDS011;68429;50.958;3.592;2023-04-03T04:50:03;11.00;;;7.25;;
54167;SDS011;68429;50.958;3.592;2023-04-03T04:52:29;16.77;;;7.28;;
54167;SDS011;68429;50.958;3.592;2023-04-03T04:54:55;13.88;;;6.55;;
54167;SDS011;68429;50.958;3.592;2023-04-03T04:57:20;19.98;;;10.30;;
54167;SDS011;68429;50.958;3.592;2023-04-03T04:59:46;32.38;;;14.27;;
54167;SDS011;68429;50.958;3.592;2023-04-03T05:02:12;20.02;;;11.68;;
54167;SDS011;68429;50.958;3.592;2023-04-03T05:04:37;23.20;;;11.13;;
54167;SDS011;68429;50.958;3.592;2023-04-03T05:07:03;18.50;;;9.75;;
54167;SDS011;68429;50.958;3.592;2023-04-03T05:09:29;18.80;;;9.55;;
54167;SDS011;68429;50.958;3.592;2023-04-03T05:11:54;16.02;;;9.02;;
54167;SDS011;68429;50.958;3.592;2023-04-03T05:14:21;13.35;;;8.85;;
54167;SDS011;68429;50.958;3.592;2023-04-03T05:16:47;19.23;;;10.10;;
54167;SDS011;68429;50.958;3.592;2023-04-03T05:19:13;14.45;;;9.45;;
54167;SDS011;68429;50.958;3.592;2023-04-03T05:21:39;12.88;;;8.90;;
54167;SDS011;68429;50.958;3.592;2023-04-03T05:24:05;14.02;;;8.13;;
54167;SDS011;68429;50.958;3.592;2023-04-03T05:26:34;18.25;;;9.30;;
54167;SDS011;68429;50.958;3.592;2023-04-03T05:28:59;16.50;;;8.50;;
54167;SDS011;68429;50.958;3.592;2023-04-03T05:31:25;16.48;;;8.85;;
54167;SDS011;68429;50.958;3.592;2023-04-03T05:33:54;14.88;;;8.95;;
54167;SDS011;68429;50.958;3.592;2023-04-03T05:36:20;12.30;;;8.38;;
54167;SDS011;68429;50.958;3.592;2023-04-03T05:38:45;17.67;;;9.15;;
54167;SDS011;68429;50.958;3.592;2023-04-03T05:41:12;14.32;;;9.02;;
54167;SDS011;68429;50.958;3.592;2023-04-03T05:43:39;14.82;;;8.98;;
54167;SDS011;68429;50.958;3.592;2023-04-03T05:46:11;23.90;;;8.95;;
54167;SDS011;68429;50.958;3.592;2023-04-03T05:48:39;11.80;;;9.07;;
54167;SDS011;68429;50.958;3.592;2023-04-03T05:51:06;16.60;;;9.40;;
54167;SDS011;68429;50.958;3.592;2023-04-03T05:53:33;13.90;;;9.23;;
54167;SDS011;68429;50.958;3.592;2023-04-03T05:56:04;14.45;;;9.00;;
54167;SDS011;68429;50.958;3.592;2023-04-03T05:58:29;13.23;;;9.32;;
54167;SDS011;68429;50.958;3.592;2023-04-03T06:00:55;14.35;;;8.50;;
54167;SDS011;68429;50.958;3.592;2023-04-03T06:03:22;13.75;;;8.65;;
54167;SDS011;68429;50.958;3.592;2023-04-03T06:05:47;14.25;;;8.48;;
54167;SDS011;68429;50.958;3.592;2023-04-03T06:08:13;11.73;;;7.80;;
54167;SDS011;68429;50.958;3.592;2023-04-03T06:10:39;11.38;;;7.97;;
54167;SDS011;68429;50.958;3.592;2023-04-03T06:13:05;15.23;;;8.52;;
54167;SDS011;68429;50.958;3.592;2023-04-03T06:15:31;17.10;;;7.70;;
54167;SDS011;68429;50.958;3.592;2023-04-03T06:17:57;14.15;;;8.13;;
54167;SDS011;68429;50.958;3.592;2023-04-03T06:20:23;11.57;;;7.40;;
54167;SDS011;68429;50.958;3.592;2023-04-03T06:22:49;17.83;;;7.28;;
54167;SDS011;68429;50.958;3.592;2023-04-03T06:25:15;17.83;;;7.30;;
54167;SDS011;68429;50.958;3.592;2023-04-03T06:27:43;21.80;;;7.70;;
54167;SDS011;68429;50.958;3.592;2023-04-03T06:30:10;11.10;;;6.55;;
54167;SDS011;68429;50.958;3.592;2023-04-03T06:32:36;12.70;;;5.57;;
54167;SDS011;68429;50.958;3.592;2023-04-03T06:35:02;6.75;;;5.63;;
54167;SDS011;68429;50.958;3.592;2023-04-03T06:37:29;13.82;;;5.63;;
54167;SDS011;68429;50.958;3.592;2023-04-03T06:39:55;9.20;;;5.80;;
54167;SDS011;68429;50.958;3.592;2023-04-03T06:42:21;10.55;;;6.25;;
54167;SDS011;68429;50.958;3.592;2023-04-03T06:44:47;9.23;;;5.15;;
54167;SDS011;68429;50.958;3.592;2023-04-03T06:47:13;13.45;;;6.40;;
54167;SDS011;68429;50.958;3.592;2023-04-03T06:49:40;12.93;;;6.32;;
54167;SDS011;68429;50.958;3.592;2023-04-03T06:52:06;11.40;;;6.10;;
54167;SDS011;68429;50.958;3.592;2023-04-03T06:54:32;11.02;;;5.82;;
54167;SDS011;68429;50.958;3.592;2023-04-03T06:56:58;13.77;;;6.05;;
54167;SDS011;68429;50.958;3.592;2023-04-03T06:59:24;13.40;;;6.05;;
54167;SDS011;68429;50.958;3.592;2023-04-03T07:01:50;10.70;;;5.70;;
54167;SDS011;68429;50.958;3.592;2023-04-03T07:04:16;13.10;;;6.07;;
54167;SDS011;68429;50.958;3.592;2023-04-03T07:06:45;9.15;;;5.70;;
54167;SDS011;68429;50.958;3.592;2023-04-03T07:09:11;9.57;;;5.35;;
54167;SDS011;68429;50.958;3.592;2023-04-03T07:11:37;13.65;;;5.32;;
54167;SDS011;68429;50.958;3.592;2023-04-03T07:14:03;14.60;;;4.68;;
54167;SDS011;68429;50.958;3.592;2023-04-03T07:16:29;16.45;;;5.57;;
54167;SDS011;68429;50.958;3.592;2023-04-03T07:18:55;12.65;;;4.53;;
54167;SDS011;68429;50.958;3.592;2023-04-03T07:21:22;11.43;;;4.30;;
54167;SDS011;68429;50.958;3.592;2023-04-03T07:23:48;9.18;;;4.75;;
54167;SDS011;68429;50.958;3.592;2023-04-03T07:26:14;8.82;;;4.10;;
54167;SDS011;68429;50.958;3.592;2023-04-03T07:28:39;7.85;;;4.35;;
54167;SDS011;68429;50.958;3.592;2023-04-03T07:31:07;7.75;;;4.55;;
54167;SDS011;68429;50.958;3.592;2023-04-03T07:36:02;13.32;;;4.45;;
54167;SDS011;68429;50.958;3.592;2023-04-03T07:38:28;9.50;;;3.63;;
54167;SDS011;68429;50.958;3.592;2023-04-03T07:40:54;5.32;;;4.63;;
54167;SDS011;68429;50.958;3.592;2023-04-03T07:43:20;6.78;;;3.95;;
54167;SDS011;68429;50.958;3.592;2023-04-03T07:45:47;7.07;;;3.85;;
54167;SDS011;68429;50.958;3.592;2023-04-03T07:48:17;5.63;;;3.60;;
54167;SDS011;68429;50.958;3.592;2023-04-03T07:50:45;4.53;;;3.00;;
54167;SDS011;68429;50.958;3.592;2023-04-03T07:53:11;9.45;;;4.35;;
54167;SDS011;68429;50.958;3.592;2023-04-03T07:55:36;9.50;;;3.85;;
54167;SDS011;68429;50.958;3.592;2023-04-03T07:58:08;9.88;;;2.90;;
54167;SDS011;68429;50.958;3.592;2023-04-03T08:00:39;3.90;;;2.70;;
54167;SDS011;68429;50.958;3.592;2023-04-03T08:03:05;8.48;;;3.40;;
54167;SDS011;68429;50.958;3.592;2023-04-03T08:05:36;6.70;;;3.25;;
54167;SDS011;68429;50.958;3.592;2023-04-03T08:08:02;5.22;;;3.30;;
54167;SDS011;68429;50.958;3.592;2023-04-03T08:10:29;3.97;;;2.85;;
54167;SDS011;68429;50.958;3.592;2023-04-03T08:12:55;5.60;;;2.85;;
54167;SDS011;68429;50.958;3.592;2023-04-03T08:15:21;6.00;;;2.53;;
54167;SDS011;68429;50.958;3.592;2023-04-03T08:17:47;6.30;;;2.90;;
54167;SDS011;68429;50.958;3.592;2023-04-03T08:20:13;5.95;;;3.22;;
54167;SDS011;68429;50.958;3.592;2023-04-03T08:22:38;6.60;;;3.40;;
54167;SDS011;68429;50.958;3.592;2023-04-03T08:25:04;5.63;;;3.22;;
54167;SDS011;68429;50.958;3.592;2023-04-03T08:27:30;9.68;;;3.47;;
54167;SDS011;68429;50.958;3.592;2023-04-03T08:29:56;6.03;;;2.80;;
54167;SDS011;68429;50.958;3.592;2023-04-03T08:32:22;4.47;;;2.65;;
54167;SDS011;68429;50.958;3.592;2023-04-03T08:34:49;6.90;;;4.10;;
54167;SDS011;68429;50.958;3.592;2023-04-03T08:37:15;8.10;;;4.28;;
54167;SDS011;68429;50.958;3.592;2023-04-03T08:39:41;7.25;;;4.20;;
54167;SDS011;68429;50.958;3.592;2023-04-03T08:42:16;9.38;;;4.60;;
54167;SDS011;68429;50.958;3.592;2023-04-03T08:44:47;7.90;;;3.53;;
54167;SDS011;68429;50.958;3.592;2023-04-03T08:47:38;6.65;;;4.97;;
54167;SDS011;68429;50.958;3.592;2023-04-03T08:50:05;10.40;;;4.70;;
54167;SDS011;68429;50.958;3.592;2023-04-03T08:52:36;8.60;;;5.15;;
54167;SDS011;68429;50.958;3.592;2023-04-03T08:55:07;7.32;;;4.30;;
54167;SDS011;68429;50.958;3.592;2023-04-03T08:57:41;9.48;;;4.80;;
54167;SDS011;68429;50.958;3.592;2023-04-03T09:00:23;8.95;;;4.13;;
54167;SDS011;68429;50.958;3.592;2023-04-03T09:02:51;8.95;;;2.28;;
54167;SDS011;68429;50.958;3.592;2023-04-03T09:06:05;5.78;;;2.70;;
54167;SDS011;68429;50.958;3.592;2023-04-03T09:10:52;5.72;;;2.88;;
54167;SDS011;68429;50.958;3.592;2023-04-03T09:21:42;8.45;;;1.75;;
54167;SDS011;68429;50.958;3.592;2023-04-03T09:24:09;5.80;;;2.10;;
54167;SDS011;68429;50.958;3.592;2023-04-03T09:29:10;5.55;;;1.45;;
54167;SDS011;68429;50.958;3.592;2023-04-03T09:31:43;7.75;;;1.73;;
54167;SDS011;68429;50.958;3.592;2023-04-03T09:36:47;3.70;;;1.75;;
54167;SDS011;68429;50.958;3.592;2023-04-03T09:39:28;1.55;;;0.88;;
54167;SDS011;68429;50.958;3.592;2023-04-03T09:41:58;3.22;;;1.27;;
54167;SDS011;68429;50.958;3.592;2023-04-03T09:44:30;2.55;;;1.63;;
54167;SDS011;68429;50.958;3.592;2023-04-03T09:46:57;3.55;;;1.38;;
54167;SDS011;68429;50.958;3.592;2023-04-03T09:49:24;6.28;;;1.42;;
54167;SDS011;68429;50.958;3.592;2023-04-03T09:51:50;2.78;;;1.40;;
54167;SDS011;68429;50.958;3.592;2023-04-03T09:54:35;2.78;;;1.38;;
54167;SDS011;68429;50.958;3.592;2023-04-03T09:57:06;8.20;;;1.60;;
54167;SDS011;68429;50.958;3.592;2023-04-03T09:59:34;3.78;;;1.92;;
54167;SDS011;68429;50.958;3.592;2023-04-03T10:02:28;6.78;;;2.42;;
54167;SDS011;68429;50.958;3.592;2023-04-03T10:05:03;6.25;;;2.05;;
54167;SDS011;68429;50.958;3.592;2023-04-03T10:07:48;4.00;;;1.92;;
54167;SDS011;68429;50.958;3.592;2023-04-03T10:12:40;4.35;;;1.30;;
54167;SDS011;68429;50.958;3.592;2023-04-03T10:15:13;5.47;;;1.70;;
54167;SDS011;68429;50.958;3.592;2023-04-03T10:23:05;2.38;;;1.42;;
54167;SDS011;68429;50.958;3.592;2023-04-03T10:25:43;6.38;;;1.95;;
54167;SDS011;68429;50.958;3.592;2023-04-03T10:28:22;3.78;;;1.67;;
54167;SDS011;68429;50.958;3.592;2023-04-03T10:34:02;6.80;;;1.95;;
54167;SDS011;68429;50.958;3.592;2023-04-03T10:36:36;7.25;;;1.60;;
54167;SDS011;68429;50.958;3.592;2023-04-03T10:47:39;4.07;;;1.92;;
54167;SDS011;68429;50.958;3.592;2023-04-03T10:52:48;3.50;;;1.48;;
54167;SDS011;68429;50.958;3.592;2023-04-03T10:55:26;7.55;;;1.48;;
54167;SDS011;68429;50.958;3.592;2023-04-03T11:00:59;4.22;;;1.58;;
54167;SDS011;68429;50.958;3.592;2023-04-03T11:03:35;4.72;;;1.58;;
54167;SDS011;68429;50.958;3.592;2023-04-03T11:06:06;4.45;;;1.60;;
54167;SDS011;68429;50.958;3.592;2023-04-03T11:08:38;5.22;;;1.60;;
54167;SDS011;68429;50.958;3.592;2023-04-03T11:11:43;3.88;;;1.60;;
54167;SDS011;68429;50.958;3.592;2023-04-03T11:17:39;4.82;;;1.52;;
54167;SDS011;68429;50.958;3.592;2023-04-03T11:19:51;4.03;;;1.67;;
54167;SDS011;68429;50.958;3.592;2023-04-03T11:27:38;1.42;;;1.00;;
54167;SDS011;68429;50.958;3.592;2023-04-03T11:30:19;5.38;;;1.58;;
54167;SDS011;68429;50.958;3.592;2023-04-03T11:35:23;4.03;;;1.48;;
54167;SDS011;68429;50.958;3.592;2023-04-03T11:37:53;3.30;;;1.70;;
54167;SDS011;68429;50.958;3.592;2023-04-03T11:40:24;5.85;;;1.35;;
54167;SDS011;68429;50.958;3.592;2023-04-03T11:45:27;2.78;;;1.10;;
54167;SDS011;68429;50.958;3.592;2023-04-03T11:58:34;1.55;;;0.98;;
54167;SDS011;68429;50.958;3.592;2023-04-03T12:03:56;2.45;;;1.10;;
54167;SDS011;68429;50.958;3.592;2023-04-03T12:08:59;3.70;;;1.02;;
54167;SDS011;68429;50.958;3.592;2023-04-03T12:11:31;2.03;;;0.88;;
54167;SDS011;68429;50.958;3.592;2023-04-03T12:19:38;3.67;;;1.10;;
54167;SDS011;68429;50.958;3.592;2023-04-03T12:24:53;1.70;;;0.90;;
54167;SDS011;68429;50.958;3.592;2023-04-03T12:46:52;2.45;;;1.23;;
54167;SDS011;68429;50.958;3.592;2023-04-03T12:49:38;4.70;;;1.52;;
54167;SDS011;68429;50.958;3.592;2023-04-03T12:54:56;2.47;;;1.10;;
54167;SDS011;68429;50.958;3.592;2023-04-03T12:57:25;2.38;;;1.25;;
54167;SDS011;68429;50.958;3.592;2023-04-03T12:59:52;3.15;;;0.80;;
54167;SDS011;68429;50.958;3.592;2023-04-03T13:02:23;3.10;;;1.10;;
54167;SDS011;68429;50.958;3.592;2023-04-03T13:04:49;3.92;;;1.30;;
54167;SDS011;68429;50.958;3.592;2023-04-03T13:12:45;4.28;;;1.90;;
54167;SDS011;68429;50.958;3.592;2023-04-03T13:15:13;5.78;;;1.20;;
54167;SDS011;68429;50.958;3.592;2023-04-03T13:17:50;1.60;;;1.20;;
54167;SDS011;68429;50.958;3.592;2023-04-03T13:25:20;3.80;;;1.40;;
54167;SDS011;68429;50.958;3.592;2023-04-03T13:27:47;2.28;;;1.17;;
54167;SDS011;68429;50.958;3.592;2023-04-03T13:33:27;7.10;;;1.38;;
54167;SDS011;68429;50.958;3.592;2023-04-03T13:36:06;3.80;;;1.20;;
54167;SDS011;68429;50.958;3.592;2023-04-03T13:38:41;2.60;;;1.33;;
54167;SDS011;68429;50.958;3.592;2023-04-03T13:46:50;4.13;;;1.10;;
54167;SDS011;68429;50.958;3.592;2023-04-03T13:52:51;5.00;;;1.20;;
54167;SDS011;68429;50.958;3.592;2023-04-03T13:54:56;1.38;;;0.68;;
54167;SDS011;68429;50.958;3.592;2023-04-03T13:57:24;2.45;;;1.10;;
54167;SDS011;68429;50.958;3.592;2023-04-03T13:59:51;2.58;;;1.10;;
54167;SDS011;68429;50.958;3.592;2023-04-03T14:07:16;0.85;;;0.60;;
54167;SDS011;68429;50.958;3.592;2023-04-03T14:09:43;2.83;;;0.98;;
54167;SDS011;68429;50.958;3.592;2023-04-03T14:12:13;3.17;;;0.82;;
54167;SDS011;68429;50.958;3.592;2023-04-03T14:14:49;2.58;;;0.80;;
54167;SDS011;68429;50.958;3.592;2023-04-03T14:17:17;3.58;;;1.00;;
54167;SDS011;68429;50.958;3.592;2023-04-03T14:19:45;4.63;;;0.68;;
54167;SDS011;68429;50.958;3.592;2023-04-03T14:24:53;2.70;;;0.82;;
54167;SDS011;68429;50.958;3.592;2023-04-03T14:27:21;2.10;;;1.00;;
54167;SDS011;68429;50.958;3.592;2023-04-03T14:29:50;5.22;;;0.90;;
54167;SDS011;68429;50.958;3.592;2023-04-03T14:32:18;3.22;;;0.80;;
54167;SDS011;68429;50.958;3.592;2023-04-03T14:34:49;1.08;;;0.70;;
54167;SDS011;68429;50.958;3.592;2023-04-03T14:37:20;1.88;;;1.13;;
54167;SDS011;68429;50.958;3.592;2023-04-03T14:39:49;0.80;;;0.60;;
54167;SDS011;68429;50.958;3.592;2023-04-03T14:42:17;1.05;;;0.70;;
54167;SDS011;68429;50.958;3.592;2023-04-03T14:44:45;2.00;;;1.00;;
54167;SDS011;68429;50.958;3.592;2023-04-03T14:47:12;1.40;;;0.90;;
54167;SDS011;68429;50.958;3.592;2023-04-03T14:49:41;3.88;;;1.15;;
54167;SDS011;68429;50.958;3.592;2023-04-03T14:52:15;1.10;;;0.80;;
54167;SDS011;68429;50.958;3.592;2023-04-03T14:54:51;3.90;;;1.35;;
54167;SDS011;68429;50.958;3.592;2023-04-03T14:57:17;3.33;;;0.98;;
54167;SDS011;68429;50.958;3.592;2023-04-03T14:59:44;2.28;;;1.05;;
54167;SDS011;68429;50.958;3.592;2023-04-03T15:04:54;1.45;;;0.80;;
54167;SDS011;68429;50.958;3.592;2023-04-03T15:07:20;2.00;;;1.05;;
54167;SDS011;68429;50.958;3.592;2023-04-03T15:09:47;3.05;;;1.10;;
54167;SDS011;68429;50.958;3.592;2023-04-03T15:12:14;1.52;;;0.77;;
54167;SDS011;68429;50.958;3.592;2023-04-03T15:14:40;2.65;;;1.05;;
54167;SDS011;68429;50.958;3.592;2023-04-03T15:17:05;2.40;;;0.85;;
54167;SDS011;68429;50.958;3.592;2023-04-03T15:19:38;6.60;;;1.10;;
54167;SDS011;68429;50.958;3.592;2023-04-03T15:22:04;1.67;;;1.05;;
54167;SDS011;68429;50.958;3.592;2023-04-03T15:24:30;1.40;;;0.70;;
54167;SDS011;68429;50.958;3.592;2023-04-03T15:26:56;1.35;;;0.57;;
54167;SDS011;68429;50.958;3.592;2023-04-03T15:29:22;4.20;;;1.20;;
54167;SDS011;68429;50.958;3.592;2023-04-03T15:31:47;1.30;;;0.93;;
54167;SDS011;68429;50.958;3.592;2023-04-03T15:34:14;2.33;;;1.08;;
54167;SDS011;68429;50.958;3.592;2023-04-03T15:36:41;2.30;;;1.25;;
54167;SDS011;68429;50.958;3.592;2023-04-03T15:39:06;7.05;;;1.92;;
54167;SDS011;68429;50.958;3.592;2023-04-03T15:41:32;4.50;;;1.13;;
54167;SDS011;68429;50.958;3.592;2023-04-03T15:43:58;5.80;;;1.73;;
54167;SDS011;68429;50.958;3.592;2023-04-03T15:46:23;3.42;;;1.58;;
54167;SDS011;68429;50.958;3.592;2023-04-03T15:48:49;2.10;;;1.05;;
54167;SDS011;68429;50.958;3.592;2023-04-03T15:51:15;6.43;;;1.27;;
54167;SDS011;68429;50.958;3.592;2023-04-03T15:53:40;4.60;;;1.15;;
54167;SDS011;68429;50.958;3.592;2023-04-03T15:56:07;3.58;;;1.02;;
54167;SDS011;68429;50.958;3.592;2023-04-03T15:58:34;4.53;;;1.25;;
54167;SDS011;68429;50.958;3.592;2023-04-03T16:01:00;1.08;;;0.98;;
54167;SDS011;68429;50.958;3.592;2023-04-03T16:03:27;2.97;;;0.98;;
54167;SDS011;68429;50.958;3.592;2023-04-03T16:05:53;5.45;;;1.27;;
54167;SDS011;68429;50.958;3.592;2023-04-03T16:08:19;1.05;;;0.80;;
54167;SDS011;68429;50.958;3.592;2023-04-03T16:10:45;2.53;;;1.15;;
54167;SDS011;68429;50.958;3.592;2023-04-03T16:13:12;1.88;;;0.75;;
54167;SDS011;68429;50.958;3.592;2023-04-03T16:15:38;2.72;;;1.15;;
54167;SDS011;68429;50.958;3.592;2023-04-03T16:18:04;2.55;;;1.02;;
54167;SDS011;68429;50.958;3.592;2023-04-03T16:20:31;1.52;;;0.93;;
54167;SDS011;68429;50.958;3.592;2023-04-03T16:22:57;3.55;;;1.23;;
54167;SDS011;68429;50.958;3.592;2023-04-03T16:25:24;2.10;;;0.98;;
54167;SDS011;68429;50.958;3.592;2023-04-03T16:27:51;2.35;;;1.40;;
54167;SDS011;68429;50.958;3.592;2023-04-03T16:30:17;1.33;;;0.60;;
54167;SDS011;68429;50.958;3.592;2023-04-03T16:32:43;2.00;;;1.00;;
54167;SDS011;68429;50.958;3.592;2023-04-03T16:35:09;3.00;;;0.98;;
54167;SDS011;68429;50.958;3.592;2023-04-03T16:37:36;1.50;;;1.10;;
54167;SDS011;68429;50.958;3.592;2023-04-03T16:40:02;3.15;;;0.90;;
54167;SDS011;68429;50.958;3.592;2023-04-03T16:42:30;5.20;;;1.10;;
54167;SDS011;68429;50.958;3.592;2023-04-03T16:44:55;0.65;;;0.65;;
54167;SDS011;68429;50.958;3.592;2023-04-03T16:47:21;1.05;;;0.80;;
54167;SDS011;68429;50.958;3.592;2023-04-03T16:49:47;1.75;;;0.95;;
54167;SDS011;68429;50.958;3.592;2023-04-03T16:52:13;1.73;;;0.90;;
54167;SDS011;68429;50.958;3.592;2023-04-03T16:54:39;4.47;;;1.00;;
54167;SDS011;68429;50.958;3.592;2023-04-03T16:57:05;1.63;;;1.08;;
54167;SDS011;68429;50.958;3.592;2023-04-03T16:59:31;2.35;;;1.10;;
54167;SDS011;68429;50.958;3.592;2023-04-03T17:01:56;5.50;;;1.45;;
54167;SDS011;68429;50.958;3.592;2023-04-03T17:04:22;0.85;;;0.40;;
54167;SDS011;68429;50.958;3.592;2023-04-03T17:06:48;1.42;;;0.80;;
54167;SDS011;68429;50.958;3.592;2023-04-03T17:09:13;3.17;;;0.90;;
54167;SDS011;68429;50.958;3.592;2023-04-03T17:11:39;2.90;;;1.00;;